Defiance, Iowa
Current Conditions -  °F | °C
As of 4:35 AM on Friday 26 Dec 2014 (Local Time) from KDNS Reporting Station
Haze Haze  
Wind Chill: 25°   Ceiling: 400
Heat Index: 32°   Visibility: 5mi
Dew Point: 32°   Wind: 8mph
Humidity: 100%   Direction: 360°N
Pressure: 29.83"   Gusts: NA
Location:  41.82°N, 95.34°W
Report Text: KDNS 261035Z AUTO 36007KT 5SM BR OVC004 M00/M00 A2983 RMK AO2
Loading
Personal Weather Stations






























Interactive Weather Map New forecast layout! Learn more

10-Day Weather Forecast

Advertisements
Track Severe Weather on mobile